Time,TemperatureF,DewpointF,PressureIn,WindDirection,WindDirectionDegrees,WindSpeedMPH,WindSpeedGustMPH,Humidity,HourlyPrecipIn,Conditions,Clouds,dailyrainin,SoftwareType,DateUTC
2013-01-06 16:03:00,57.0,45.0,30.15,ESE,122,4.0,6.0,63,0.00,,,0.00,,2013-01-06 21:03:00,
2013-01-06 16:42:00,57.0,45.0,30.16,North,354,1.0,2.0,64,0.00,,,0.00,,2013-01-06 21:42:00,
2013-01-06 16:52:00,57.0,43.0,30.17,West,277,4.0,6.0,60,0.00,,,0.00,,2013-01-06 21:52:00,
2013-01-06 17:02:00,55.0,42.0,30.18,NE,56,3.0,7.0,61,0.00,,,0.00,,2013-01-06 22:02:00,
2013-01-06 17:12:00,55.0,42.0,30.18,NE,56,3.0,7.0,61,0.00,,,0.00,,2013-01-06 22:12:00,
2013-01-06 17:22:00,54.0,42.0,30.18,SE,146,2.0,3.0,64,0.00,,,0.00,,2013-01-06 22:22:00,
2013-01-06 17:33:00,52.0,41.0,30.18,SW,235,4.0,5.0,67,0.00,,,0.00,,2013-01-06 22:33:00,
2013-01-06 17:43:00,52.0,41.0,30.18,SW,235,4.0,5.0,67,0.00,,,0.00,,2013-01-06 22:43:00,
2013-01-06 17:52:00,50.0,41.0,30.18,West,267,4.0,5.0,71,0.00,,,0.00,,2013-01-06 22:52:00,
2013-01-06 18:02:00,49.0,40.0,30.19,SSW,200,3.0,5.0,72,0.00,,,0.00,,2013-01-06 23:02:00,
2013-01-06 18:12:00,49.0,40.0,30.19,SSW,200,3.0,5.0,72,0.00,,,0.00,,2013-01-06 23:12:00,
2013-01-06 18:22:00,48.0,39.0,30.20,SSW,208,2.0,3.0,72,0.00,,,0.00,,2013-01-06 23:22:00,
2013-01-06 18:33:00,48.0,40.0,30.20,WSW,243,3.0,5.0,73,0.00,,,0.00,,2013-01-06 23:33:00,
2013-01-06 18:43:00,48.0,40.0,30.20,WSW,243,3.0,5.0,73,0.00,,,0.00,,2013-01-06 23:43:00,
2013-01-06 18:53:00,46.0,39.0,30.21,SSW,193,0.0,0.0,75,0.00,,,0.00,,2013-01-06 23:53:00,
2013-01-06 19:02:00,46.0,39.0,30.22,SE,138,1.0,2.0,76,0.00,,,0.00,,2013-01-07 00:02:00,
2013-01-06 19:12:00,46.0,39.0,30.22,SE,138,1.0,2.0,76,0.00,,,0.00,,2013-01-07 00:12:00,
2013-01-06 19:23:00,46.0,39.0,30.22,West,273,4.0,5.0,75,0.00,,,0.00,,2013-01-07 00:23:00,
2013-01-06 19:33:00,46.0,38.0,30.23,NNW,332,6.0,8.0,74,0.00,,,0.00,,2013-01-07 00:33:00,
2013-01-06 19:42:00,46.0,38.0,30.23,NNW,332,6.0,8.0,74,0.00,,,0.00,,2013-01-07 00:42:00,
2013-01-06 19:52:00,46.0,37.0,30.23,North,359,7.0,10.0,70,0.00,,,0.00,,2013-01-07 00:52:00,
2013-01-06 20:02:00,45.0,35.0,30.23,NW,315,9.0,13.0,68,0.00,,,0.00,,2013-01-07 01:02:00,
2013-01-06 20:12:00,45.0,35.0,30.23,NW,315,9.0,13.0,68,0.00,,,0.00,,2013-01-07 01:12:00,
2013-01-06 20:23:00,45.0,35.0,30.25,North,10,7.0,10.0,67,0.00,,,0.00,,2013-01-07 01:23:00,
2013-01-06 20:32:00,45.0,34.0,30.26,NNW,346,7.0,10.0,66,0.00,,,0.00,,2013-01-07 01:32:00,
2013-01-06 20:42:00,45.0,34.0,30.26,NNW,346,7.0,10.0,66,0.00,,,0.00,,2013-01-07 01:42:00,
2013-01-06 20:52:00,45.0,34.0,30.25,NNW,332,6.0,8.0,66,0.00,,,0.00,,2013-01-07 01:52:00,
2013-01-06 21:02:00,45.0,34.0,30.27,NNW,338,9.0,14.0,65,0.00,,,0.00,,2013-01-07 02:02:00,
2013-01-06 21:12:00,45.0,34.0,30.27,NNW,338,9.0,14.0,65,0.00,,,0.00,,2013-01-07 02:12:00,
2013-01-06 21:22:00,46.0,35.0,30.27,ESE,103,4.0,9.0,64,0.00,,,0.00,,2013-01-07 02:22:00,
2013-01-06 21:32:00,45.0,34.0,30.26,North,359,8.0,14.0,64,0.00,,,0.00,,2013-01-07 02:32:00,
2013-01-06 21:42:00,45.0,34.0,30.26,North,359,8.0,14.0,64,0.00,,,0.00,,2013-01-07 02:42:00,
2013-01-06 21:52:00,46.0,35.0,30.27,NNW,347,5.0,9.0,64,0.00,,,0.00,,2013-01-07 02:52:00,
2013-01-06 22:02:00,46.0,35.0,30.27,NW,321,5.0,10.0,64,0.00,,,0.00,,2013-01-07 03:02:00,
2013-01-06 22:12:00,46.0,35.0,30.27,NW,321,5.0,10.0,64,0.00,,,0.00,,2013-01-07 03:12:00,
2013-01-06 22:22:00,46.0,35.0,30.28,North,11,5.0,13.0,64,0.00,,,0.00,,2013-01-07 03:22:00,
2013-01-06 22:33:00,46.0,35.0,30.29,NE,52,9.0,16.0,64,0.00,,,0.00,,2013-01-07 03:33:00,
2013-01-06 22:43:00,46.0,35.0,30.29,NE,52,9.0,16.0,64,0.00,,,0.00,,2013-01-07 03:43:00,
2013-01-06 22:52:00,45.0,34.0,30.28,North,4,8.0,21.0,65,0.00,,,0.00,,2013-01-07 03:52:00,
2013-01-06 23:02:00,45.0,34.0,30.30,West,277,5.0,7.0,66,0.00,,,0.00,,2013-01-07 04:02:00,
2013-01-06 23:12:00,45.0,34.0,30.30,West,277,5.0,7.0,66,0.00,,,0.00,,2013-01-07 04:12:00,
2013-01-06 23:22:00,45.0,34.0,30.30,NW,315,6.0,11.0,65,0.00,,,0.00,,2013-01-07 04:22:00,
2013-01-06 23:32:00,45.0,34.0,30.31,NNE,15,4.0,7.0,65,0.00,,,0.00,,2013-01-07 04:32:00,
2013-01-06 23:42:00,45.0,34.0,30.31,NNE,15,4.0,7.0,65,0.00,,,0.00,,2013-01-07 04:42:00,
2013-01-06 23:52:00,45.0,35.0,30.33,North,349,4.0,9.0,67,0.00,,,0.00,,2013-01-07 04:52:00,